weather.gov     
National Weather Service

Terminal Aerodrome Forecast
NWS Homepage
This page is being discontinued on March 12, 2014.
The same data is available at this site. Please update your bookmarks.
Thank you, and we apologize for the inconvenience.
Please send an email to SR-SRH.Webmaster@noaa.gov with any concerns.


Current Version
Previous Version:    01  02  03  04  05  06  07  08  09  10  11  12  13  14  15  16  17  18  19  20  21  22  23  24  25  26  27  28  29  30  
   31  32  33  34  35  36  37  
[Printable]
341
FTUS46 KOTX 180520
TAFCOE
TAF
KCOE 180520Z 1806/1906 20010KT P6SM -SHRA SCT015 BKN030
     FM181000 21014G22KT P6SM -SHRA OVC030
     FM181500 23020G26KT P6SM BKN025
     FM182000 23021G28KT P6SM BKN050
     FM190100 22012G20KT P6SM SCT050
      AMD LTD TO CLD VIS AND WIND=




341
FTUS46 KOTX 180520
TAFCOE
TAF
KCOE 180520Z 1806/1906 20010KT P6SM -SHRA SCT015 BKN030
     FM181000 21014G22KT P6SM -SHRA OVC030
     FM181500 23020G26KT P6SM BKN025
     FM182000 23021G28KT P6SM BKN050
     FM190100 22012G20KT P6SM SCT050
      AMD LTD TO CLD VIS AND WIND=


U.S. Dept. of Commerce
NOAA National Weather Service
1325 East West Highway
Silver Spring, MD 20910
E-mail: w-nws.webmaster@noaa.gov
Page last modified: May 16, 2007
NATIONAL WEATHER SERVICE: for Safety, for Work, for Fun - FOR LIFE